createdAt,value
2023-04-18T00:00:10.389Z,13.50
2023-04-18T00:02:43.988Z,13.40
2023-04-18T00:05:18.268Z,13.40
2023-04-18T00:07:45.244Z,13.40
2023-04-18T00:10:12.596Z,13.40
2023-04-18T00:12:40.515Z,13.40
2023-04-18T00:15:11.537Z,13.40
2023-04-18T00:17:38.770Z,13.40
2023-04-18T00:20:12.805Z,13.40
2023-04-18T00:22:42.544Z,13.30
2023-04-18T00:25:11.071Z,13.30
2023-04-18T00:27:41.666Z,13.30
2023-04-18T00:30:09.240Z,13.20
2023-04-18T00:32:38.151Z,13.20
2023-04-18T00:35:05.607Z,13.10
2023-04-18T00:37:32.646Z,13.00
2023-04-18T00:39:59.607Z,13.00
2023-04-18T00:42:28.968Z,13.00
2023-04-18T00:44:56.034Z,12.90
2023-04-18T00:47:22.911Z,12.90
2023-04-18T00:49:50.048Z,12.80
2023-04-18T00:52:17.481Z,12.80
2023-04-18T00:54:45.153Z,12.70
2023-04-18T00:57:13.248Z,12.70
2023-04-18T00:59:40.619Z,12.70
2023-04-18T01:02:08.319Z,12.70
2023-04-18T01:04:35.398Z,12.70
2023-04-18T01:07:03.310Z,12.60
2023-04-18T01:09:30.729Z,12.60
2023-04-18T01:11:57.777Z,12.50
2023-04-18T01:14:24.726Z,12.50
2023-04-18T01:16:51.642Z,12.40
2023-04-18T01:19:19.576Z,12.40
2023-04-18T01:21:47.294Z,12.30
2023-04-18T01:24:16.238Z,12.30
2023-04-18T01:26:45.311Z,12.20
2023-04-18T01:29:12.243Z,12.20
2023-04-18T01:31:40.511Z,12.20
2023-04-18T01:34:08.541Z,12.20
2023-04-18T01:36:36.236Z,12.10
2023-04-18T01:39:03.638Z,12.10
2023-04-18T01:41:32.800Z,12.00
2023-04-18T01:44:00.133Z,12.00
2023-04-18T01:46:27.928Z,12.00
2023-04-18T01:48:55.539Z,11.90
2023-04-18T01:51:22.591Z,11.80
2023-04-18T01:53:49.683Z,11.80
2023-04-18T01:56:16.630Z,11.80
2023-04-18T01:58:43.598Z,11.80
2023-04-18T02:01:10.665Z,11.80
2023-04-18T02:03:38.811Z,11.80
2023-04-18T02:06:06.506Z,11.70
2023-04-18T02:08:35.668Z,11.70
2023-04-18T02:11:05.545Z,11.60
2023-04-18T02:13:32.564Z,11.60
2023-04-18T02:15:59.607Z,11.60
2023-04-18T02:18:28.037Z,11.60
2023-04-18T02:20:54.886Z,11.60
2023-04-18T02:23:22.580Z,11.50
2023-04-18T02:25:50.761Z,11.50
2023-04-18T02:28:17.915Z,11.50
2023-04-18T02:30:44.985Z,11.50
2023-04-18T02:33:11.857Z,11.50
2023-04-18T02:35:38.835Z,11.50
2023-04-18T02:38:05.838Z,11.50
2023-04-18T02:40:32.714Z,11.40
2023-04-18T02:42:59.803Z,11.40
2023-04-18T02:45:26.814Z,11.40
2023-04-18T02:47:56.819Z,11.40
2023-04-18T02:50:25.186Z,11.40
2023-04-18T02:52:53.908Z,11.40
2023-04-18T02:55:24.438Z,11.40
2023-04-18T02:57:52.674Z,11.40
2023-04-18T03:00:38.192Z,11.30
2023-04-18T03:03:22.223Z,11.30
2023-04-18T03:06:02.357Z,11.20
2023-04-18T03:08:31.345Z,11.20
2023-04-18T03:10:58.595Z,11.20
2023-04-18T03:13:27.717Z,11.20
2023-04-18T03:15:55.711Z,11.20
2023-04-18T03:18:22.920Z,11.20
2023-04-18T03:20:51.277Z,11.10
2023-04-18T03:23:18.175Z,11.10
2023-04-18T03:25:46.054Z,11.10
2023-04-18T03:28:13.091Z,11.10
2023-04-18T03:30:40.042Z,11.10
2023-04-18T03:33:07.869Z,11.10
2023-04-18T03:35:35.369Z,11.10
2023-04-18T03:38:02.294Z,11.00
2023-04-18T03:40:32.648Z,10.90
2023-04-18T03:43:05.821Z,10.90
2023-04-18T03:45:32.700Z,10.90
2023-04-18T03:48:00.026Z,10.90
2023-04-18T03:50:27.235Z,10.80
2023-04-18T03:52:56.048Z,10.80
2023-04-18T03:55:23.264Z,10.80
2023-04-18T03:57:50.923Z,10.80
2023-04-18T04:00:26.818Z,10.80
2023-04-18T04:03:07.074Z,10.80
2023-04-18T04:05:34.228Z,10.70
2023-04-18T04:08:01.130Z,10.70
2023-04-18T04:10:28.363Z,10.70
2023-04-18T04:12:55.332Z,10.70
2023-04-18T04:15:23.048Z,10.70
2023-04-18T04:17:55.855Z,10.70
2023-04-18T04:20:25.799Z,10.70
2023-04-18T04:23:01.227Z,10.70
2023-04-18T04:25:29.789Z,10.60
2023-04-18T04:28:02.646Z,10.60
2023-04-18T04:30:33.634Z,10.60
2023-04-18T04:33:01.892Z,10.50
2023-04-18T04:35:28.884Z,10.50
2023-04-18T04:37:55.930Z,10.50
2023-04-18T04:40:32.246Z,10.50
2023-04-18T04:43:16.417Z,10.50
2023-04-18T04:45:45.396Z,10.60
2023-04-18T04:48:12.577Z,10.60
2023-04-18T04:50:41.545Z,10.60
2023-04-18T04:53:11.879Z,10.70
2023-04-18T04:55:39.396Z,10.70
2023-04-18T04:58:07.008Z,10.70
2023-04-18T05:00:56.532Z,10.70
2023-04-18T05:03:23.564Z,10.70
2023-04-18T05:05:50.824Z,10.80
2023-04-18T05:08:17.632Z,10.80
2023-04-18T05:10:45.939Z,10.80
2023-04-18T05:13:13.034Z,10.90
2023-04-18T05:15:40.190Z,10.90
2023-04-18T05:18:07.108Z,10.90
2023-04-18T05:20:34.014Z,10.90
2023-04-18T05:23:01.173Z,10.90
2023-04-18T05:25:29.743Z,11.00
2023-04-18T05:27:56.754Z,11.00
2023-04-18T05:30:23.672Z,11.00
2023-04-18T05:32:50.551Z,11.00
2023-04-18T05:35:17.568Z,11.00
2023-04-18T05:37:44.421Z,11.00
2023-04-18T05:40:12.505Z,11.10
2023-04-18T05:42:39.395Z,11.10
2023-04-18T05:45:06.801Z,11.10
2023-04-18T05:47:33.893Z,11.10
2023-04-18T05:50:00.888Z,11.10
2023-04-18T05:52:27.954Z,11.10
2023-04-18T05:54:54.738Z,11.10
2023-04-18T05:57:21.591Z,11.10
2023-04-18T05:59:48.511Z,11.10
2023-04-18T06:02:15.532Z,11.10
2023-04-18T06:04:43.014Z,11.20
2023-04-18T06:07:10.192Z,11.20
2023-04-18T06:09:37.233Z,11.20
2023-04-18T06:12:04.420Z,11.30
2023-04-18T06:14:31.338Z,11.30
2023-04-18T06:16:58.515Z,11.40
2023-04-18T06:19:25.477Z,11.40
2023-04-18T06:21:52.816Z,11.40
2023-04-18T06:24:19.745Z,11.40
2023-04-18T06:26:47.283Z,11.50
2023-04-18T06:29:14.140Z,11.50
2023-04-18T06:31:42.089Z,11.60
2023-04-18T06:34:09.374Z,11.70
2023-04-18T06:36:36.318Z,11.70
2023-04-18T06:39:03.508Z,11.70
2023-04-18T06:41:31.103Z,11.70
2023-04-18T06:44:02.635Z,11.70
2023-04-18T06:46:31.019Z,11.70
2023-04-18T06:48:57.992Z,11.80
2023-04-18T06:51:25.022Z,11.80
2023-04-18T06:53:54.644Z,11.80
2023-04-18T06:56:21.947Z,11.90
2023-04-18T06:58:49.020Z,11.90
2023-04-18T07:01:16.105Z,12.00
2023-04-18T07:03:43.048Z,12.10
2023-04-18T07:06:11.034Z,12.10
2023-04-18T07:08:38.247Z,12.10
2023-04-18T07:11:06.443Z,12.20
2023-04-18T07:13:33.539Z,12.20
2023-04-18T07:16:01.549Z,12.30
2023-04-18T07:18:37.457Z,12.30
2023-04-18T07:21:07.729Z,12.30
2023-04-18T07:23:35.298Z,12.30
2023-04-18T07:26:03.101Z,12.30
2023-04-18T07:28:32.288Z,12.30
2023-04-18T07:30:59.861Z,12.30
2023-04-18T07:33:26.856Z,12.30
2023-04-18T07:35:53.819Z,12.30
2023-04-18T07:38:20.705Z,12.40
2023-04-18T07:40:55.995Z,12.40
2023-04-18T07:43:22.982Z,12.40
2023-04-18T07:45:49.922Z,12.50
2023-04-18T07:48:17.087Z,12.60
2023-04-18T07:50:43.958Z,12.80
2023-04-18T07:53:10.835Z,13.00
2023-04-18T07:55:37.790Z,13.20
2023-04-18T07:58:04.663Z,13.40
2023-04-18T08:00:32.799Z,13.70
2023-04-18T08:03:00.086Z,14.00
2023-04-18T08:05:27.081Z,14.30
2023-04-18T08:07:53.966Z,14.60
2023-04-18T08:10:23.266Z,15.00
2023-04-18T08:12:50.681Z,15.30
2023-04-18T08:15:17.529Z,15.60
2023-04-18T08:17:45.348Z,15.70
2023-04-18T08:20:12.999Z,15.50
2023-04-18T08:22:53.663Z,15.30
2023-04-18T08:25:26.903Z,15.10
2023-04-18T08:27:53.711Z,15.20
2023-04-18T08:30:20.650Z,15.60
2023-04-18T08:32:47.688Z,16.00
2023-04-18T08:35:14.588Z,16.10
2023-04-18T08:37:41.575Z,16.30
2023-04-18T08:40:09.031Z,16.30
2023-04-18T08:42:37.406Z,16.30
2023-04-18T08:45:05.895Z,16.10
2023-04-18T08:47:35.497Z,16.00
2023-04-18T08:50:02.536Z,15.70
2023-04-18T08:52:31.230Z,15.40
2023-04-18T08:54:58.021Z,15.10
2023-04-18T08:57:26.857Z,14.80
2023-04-18T08:59:56.502Z,14.60
2023-04-18T09:02:38.968Z,14.40
2023-04-18T09:05:11.935Z,14.50
2023-04-18T09:07:38.975Z,14.80
2023-04-18T09:10:06.170Z,15.20
2023-04-18T09:12:34.394Z,15.50
2023-04-18T09:15:15.660Z,15.50
2023-04-18T09:17:54.026Z,15.50
2023-04-18T09:20:41.529Z,15.40
2023-04-18T09:23:16.370Z,15.40
2023-04-18T09:25:48.086Z,15.40
2023-04-18T09:28:28.758Z,15.30
2023-04-18T09:30:58.022Z,15.50
2023-04-18T09:33:28.383Z,15.50
2023-04-18T09:36:19.403Z,15.40
2023-04-18T09:38:47.330Z,15.20
2023-04-18T09:41:20.743Z,15.00
2023-04-18T09:43:48.711Z,14.90
2023-04-18T09:46:17.637Z,14.80
2023-04-18T09:48:44.742Z,14.80
2023-04-18T09:51:18.025Z,15.00
2023-04-18T09:53:47.298Z,15.30
2023-04-18T09:56:26.013Z,15.40
2023-04-18T09:58:57.165Z,15.50
2023-04-18T10:01:28.521Z,15.50
2023-04-18T10:03:57.206Z,15.50
2023-04-18T10:06:27.453Z,15.40
2023-04-18T10:08:55.099Z,15.50
2023-04-18T10:11:24.189Z,15.60
2023-04-18T10:13:55.764Z,15.70
2023-04-18T10:16:23.133Z,15.70
2023-04-18T10:18:51.148Z,15.60
2023-04-18T10:21:18.034Z,15.50
2023-04-18T10:23:48.749Z,15.40
2023-04-18T10:26:16.060Z,15.40
2023-04-18T10:29:03.963Z,15.30
2023-04-18T10:31:39.347Z,15.30
2023-04-18T10:34:07.395Z,15.10
2023-04-18T10:36:34.343Z,15.20
2023-04-18T10:39:25.310Z,15.30
2023-04-18T10:41:52.384Z,15.30
2023-04-18T10:44:23.366Z,15.20
2023-04-18T10:46:53.683Z,15.00
2023-04-18T10:49:23.367Z,14.90
2023-04-18T10:51:58.564Z,14.90
2023-04-18T10:54:50.905Z,15.00
2023-04-18T10:57:17.984Z,15.10
2023-04-18T10:59:50.218Z,15.20
2023-04-18T11:02:26.432Z,15.20
2023-04-18T11:04:58.492Z,15.20
2023-04-18T11:07:46.182Z,15.20
2023-04-18T11:10:15.983Z,15.20
2023-04-18T11:12:43.001Z,15.10
2023-04-18T11:15:20.178Z,15.10
2023-04-18T11:18:03.889Z,15.20
2023-04-18T11:20:38.836Z,15.30
2023-04-18T11:23:20.981Z,15.40
2023-04-18T11:25:51.987Z,15.60
2023-04-18T11:28:24.702Z,15.70
2023-04-18T11:30:51.525Z,15.70
2023-04-18T11:33:18.573Z,15.70
2023-04-18T11:35:46.658Z,15.60
2023-04-18T11:38:15.154Z,15.50
2023-04-18T11:40:49.258Z,15.40
2023-04-18T11:43:21.482Z,15.50
2023-04-18T11:45:56.213Z,15.50
2023-04-18T11:48:23.790Z,15.60
2023-04-18T11:50:50.813Z,15.50
2023-04-18T11:53:33.404Z,15.60
2023-04-18T11:56:00.391Z,15.60
2023-04-18T11:58:34.246Z,15.50
2023-04-18T12:01:22.423Z,15.50
2023-04-18T12:04:01.946Z,15.50
2023-04-18T12:06:49.357Z,15.50
2023-04-18T12:09:17.366Z,15.50
2023-04-18T12:11:44.588Z,15.40
2023-04-18T12:14:24.043Z,15.40
2023-04-18T12:16:51.456Z,15.40
2023-04-18T12:19:20.834Z,15.30
2023-04-18T12:22:00.373Z,15.30
2023-04-18T12:24:28.975Z,15.40
2023-04-18T12:26:58.064Z,15.40
2023-04-18T12:29:25.857Z,15.40
2023-04-18T12:31:53.023Z,15.40
2023-04-18T12:34:20.455Z,15.40
2023-04-18T12:36:47.584Z,15.40
2023-04-18T12:39:14.485Z,15.40
2023-04-18T12:41:41.322Z,15.30
2023-04-18T12:44:09.432Z,15.40
2023-04-18T12:46:36.295Z,15.50
2023-04-18T12:49:03.095Z,15.50
2023-04-18T12:51:30.268Z,15.60
2023-04-18T12:53:57.116Z,15.50
2023-04-18T12:56:23.971Z,15.40
2023-04-18T12:58:51.057Z,15.40
2023-04-18T13:01:18.189Z,15.40
2023-04-18T13:03:51.101Z,15.50
2023-04-18T13:06:27.188Z,15.50
2023-04-18T13:08:54.109Z,15.50
2023-04-18T13:11:22.381Z,15.60
2023-04-18T13:13:49.245Z,15.60
2023-04-18T13:16:16.305Z,15.60
2023-04-18T13:18:43.208Z,15.70
2023-04-18T13:21:10.010Z,15.70
2023-04-18T13:23:37.022Z,15.90
2023-04-18T13:26:03.909Z,16.00
2023-04-18T13:28:30.822Z,16.10
2023-04-18T13:30:58.590Z,16.10
2023-04-18T13:33:25.688Z,16.20
2023-04-18T13:35:52.739Z,16.30
2023-04-18T13:38:19.629Z,16.40
2023-04-18T13:40:46.368Z,16.50
2023-04-18T13:43:13.780Z,16.60
2023-04-18T13:45:40.740Z,16.70
2023-04-18T13:48:07.522Z,16.70
2023-04-18T13:50:34.681Z,16.80
2023-04-18T13:53:01.538Z,16.80
2023-04-18T13:55:28.924Z,16.90
2023-04-18T13:57:55.990Z,16.90
2023-04-18T14:00:22.851Z,16.90
2023-04-18T14:02:49.790Z,16.70
2023-04-18T14:05:16.939Z,16.60
2023-04-18T14:07:43.930Z,16.50
2023-04-18T14:10:11.188Z,16.60
2023-04-18T14:12:38.227Z,16.50
2023-04-18T14:15:06.001Z,16.40
2023-04-18T14:17:32.926Z,16.30
2023-04-18T14:20:00.441Z,16.10
2023-04-18T14:22:27.346Z,16.10
2023-04-18T14:24:56.152Z,16.00
2023-04-18T14:27:23.495Z,16.00
2023-04-18T14:29:50.655Z,16.10
2023-04-18T14:32:17.681Z,16.20
2023-04-18T14:34:44.627Z,16.20
2023-04-18T14:37:11.494Z,16.20
2023-04-18T14:39:38.501Z,16.20
2023-04-18T14:42:05.699Z,16.20
2023-04-18T14:44:33.631Z,16.30
2023-04-18T14:47:01.526Z,16.30
2023-04-18T14:49:28.450Z,16.40
2023-04-18T14:51:55.203Z,16.40
2023-04-18T14:54:21.958Z,16.40
2023-04-18T14:56:48.980Z,16.50
2023-04-18T14:59:17.116Z,16.60
2023-04-18T15:01:44.085Z,16.70
2023-04-18T15:04:11.041Z,16.70
2023-04-18T15:06:37.983Z,16.80
2023-04-18T15:09:04.971Z,16.80
2023-04-18T15:11:31.953Z,16.80
2023-04-18T15:13:58.890Z,16.90
2023-04-18T15:16:25.871Z,16.90
2023-04-18T15:18:52.896Z,17.00
2023-04-18T15:21:19.723Z,17.10
2023-04-18T15:23:46.597Z,17.20
2023-04-18T15:26:13.550Z,17.20
2023-04-18T15:28:40.445Z,17.20
2023-04-18T15:31:07.655Z,17.30
2023-04-18T15:33:34.516Z,17.30
2023-04-18T15:36:01.344Z,17.30
2023-04-18T15:38:28.279Z,17.30
2023-04-18T15:40:55.136Z,17.20
2023-04-18T15:43:21.968Z,17.00
2023-04-18T15:45:49.005Z,16.90
2023-04-18T15:48:16.047Z,16.90
2023-04-18T15:50:42.887Z,17.00
2023-04-18T15:53:09.919Z,17.00
2023-04-18T15:55:36.898Z,17.00
2023-04-18T15:58:03.737Z,16.90
2023-04-18T16:00:30.620Z,16.90
2023-04-18T16:02:57.560Z,16.90
2023-04-18T16:05:24.634Z,16.90
2023-04-18T16:07:53.758Z,16.90
2023-04-18T16:10:20.802Z,16.90
2023-04-18T16:12:47.783Z,16.90
2023-04-18T16:15:14.517Z,16.90
2023-04-18T16:17:41.308Z,16.90
2023-04-18T16:20:09.027Z,16.90
2023-04-18T16:22:36.599Z,17.00
2023-04-18T16:25:04.657Z,17.10
2023-04-18T16:27:32.467Z,17.10
2023-04-18T16:29:59.318Z,17.20
2023-04-18T16:32:26.475Z,17.30
2023-04-18T16:34:53.567Z,17.30
2023-04-18T16:37:20.508Z,17.40
2023-04-18T16:39:47.380Z,17.40
2023-04-18T16:42:15.881Z,17.40
2023-04-18T16:44:44.646Z,17.40
2023-04-18T16:47:11.553Z,17.30
2023-04-18T16:49:38.870Z,17.30
2023-04-18T16:52:05.730Z,17.30
2023-04-18T16:54:32.528Z,17.30
2023-04-18T16:56:59.370Z,17.30
2023-04-18T16:59:26.155Z,17.30
2023-04-18T17:01:53.044Z,17.40
2023-04-18T17:04:20.064Z,17.30
2023-04-18T17:06:47.003Z,17.30
2023-04-18T17:09:14.817Z,17.20
2023-04-18T17:11:42.183Z,17.30
2023-04-18T17:14:09.345Z,17.30
2023-04-18T17:16:38.711Z,17.30
2023-04-18T17:19:05.757Z,17.30
2023-04-18T17:21:34.630Z,17.30
2023-04-18T17:24:03.884Z,17.30
2023-04-18T17:26:31.369Z,17.40
2023-04-18T17:28:58.489Z,17.40
2023-04-18T17:31:25.627Z,17.30
2023-04-18T17:33:53.135Z,17.40
2023-04-18T17:36:20.186Z,17.30
2023-04-18T17:38:50.157Z,17.30
2023-04-18T17:41:18.889Z,17.30
2023-04-18T17:43:46.665Z,17.30
2023-04-18T17:46:14.409Z,17.30
2023-04-18T17:48:41.507Z,17.30
2023-04-18T17:51:08.435Z,17.30
2023-04-18T17:53:35.447Z,17.30
2023-04-18T17:56:03.545Z,17.30
2023-04-18T17:58:30.521Z,17.20
2023-04-18T18:00:57.529Z,17.20
2023-04-18T18:03:24.703Z,17.10
2023-04-18T18:05:51.909Z,17.10
2023-04-18T18:08:18.971Z,17.00
2023-04-18T18:10:47.116Z,17.00
2023-04-18T18:13:13.988Z,16.90
2023-04-18T18:15:40.823Z,16.80
2023-04-18T18:18:07.920Z,16.70
2023-04-18T18:20:34.768Z,16.60
2023-04-18T18:23:02.722Z,16.50
2023-04-18T18:25:29.738Z,16.40
2023-04-18T18:27:56.571Z,16.40
2023-04-18T18:30:23.512Z,16.30
2023-04-18T18:32:50.635Z,16.30
2023-04-18T18:35:18.043Z,16.30
2023-04-18T18:37:45.044Z,16.30
2023-04-18T18:40:12.259Z,16.20
2023-04-18T18:42:39.623Z,16.10
2023-04-18T18:45:07.556Z,16.00
2023-04-18T18:47:35.155Z,16.00
2023-04-18T18:50:02.656Z,16.00
2023-04-18T18:52:30.824Z,16.00
2023-04-18T18:54:57.855Z,15.90
2023-04-18T18:57:25.049Z,15.80
2023-04-18T18:59:52.959Z,15.80
2023-04-18T19:02:21.423Z,15.80
2023-04-18T19:04:48.681Z,15.80
2023-04-18T19:07:15.931Z,15.90
2023-04-18T19:09:42.725Z,15.90
2023-04-18T19:12:10.022Z,15.90
2023-04-18T19:14:36.857Z,15.90
2023-04-18T19:17:04.852Z,15.90
2023-04-18T19:19:31.674Z,16.00
2023-04-18T19:22:01.104Z,15.90
2023-04-18T19:24:28.048Z,15.90
2023-04-18T19:26:54.850Z,15.80
2023-04-18T19:29:22.268Z,15.80
2023-04-18T19:31:49.243Z,15.80
2023-04-18T19:34:18.816Z,15.80
2023-04-18T19:36:45.864Z,15.70
2023-04-18T19:39:12.896Z,15.70
2023-04-18T19:41:41.620Z,15.70
2023-04-18T19:44:08.837Z,15.60
2023-04-18T19:46:35.890Z,15.60
2023-04-18T19:49:02.989Z,15.60
2023-04-18T19:51:30.139Z,15.50
2023-04-18T19:53:57.684Z,15.40
2023-04-18T19:56:24.574Z,15.40
2023-04-18T19:58:51.473Z,15.30
2023-04-18T20:01:20.153Z,15.30
2023-04-18T20:03:48.185Z,15.20
2023-04-18T20:06:16.136Z,15.00
2023-04-18T20:08:43.193Z,14.80
2023-04-18T20:11:11.359Z,14.70
2023-04-18T20:13:38.591Z,14.60
2023-04-18T20:16:07.457Z,14.50
2023-04-18T20:18:35.904Z,14.40
2023-04-18T20:21:03.626Z,14.30
2023-04-18T20:23:30.429Z,14.30
2023-04-18T20:25:57.306Z,14.30
2023-04-18T20:28:24.297Z,14.30
2023-04-18T20:30:51.228Z,14.20
2023-04-18T20:33:18.312Z,14.20
2023-04-18T20:35:46.918Z,14.10
2023-04-18T20:38:14.712Z,14.10
2023-04-18T20:40:45.018Z,14.10
2023-04-18T20:43:13.614Z,14.10
2023-04-18T20:45:42.907Z,14.10
2023-04-18T20:48:10.540Z,14.10
2023-04-18T20:50:39.975Z,14.10
2023-04-18T20:53:06.884Z,14.20
2023-04-18T20:55:33.873Z,14.20
2023-04-18T20:58:00.717Z,14.30
2023-04-18T21:00:28.512Z,14.30
2023-04-18T21:02:55.603Z,14.30
2023-04-18T21:05:22.715Z,14.20
2023-04-18T21:07:49.774Z,14.30
2023-04-18T21:10:16.663Z,14.20
2023-04-18T21:12:43.515Z,14.20
2023-04-18T21:15:10.853Z,14.20
2023-04-18T21:17:37.721Z,14.10
2023-04-18T21:20:04.998Z,14.00
2023-04-18T21:22:31.887Z,13.90
2023-04-18T21:24:58.740Z,13.90
2023-04-18T21:27:25.834Z,13.80
2023-04-18T21:29:52.641Z,13.80
2023-04-18T21:32:19.449Z,13.80
2023-04-18T21:34:46.292Z,13.80
2023-04-18T21:37:13.178Z,13.70
2023-04-18T21:39:40.099Z,13.70
2023-04-18T21:42:06.958Z,13.60
2023-04-18T21:44:33.856Z,13.50
2023-04-18T21:47:00.689Z,13.50
2023-04-18T21:49:27.690Z,13.50
2023-04-18T21:51:55.012Z,13.50
2023-04-18T21:54:21.884Z,13.40
2023-04-18T21:56:48.882Z,13.40
2023-04-18T21:59:15.945Z,13.40
2023-04-18T22:01:43.341Z,13.40
2023-04-18T22:04:12.433Z,13.40
2023-04-18T22:06:39.588Z,13.30
2023-04-18T22:09:06.599Z,13.20
2023-04-18T22:11:33.504Z,13.20
2023-04-18T22:14:00.490Z,13.10
2023-04-18T22:16:28.777Z,13.10
2023-04-18T22:18:55.919Z,13.10
2023-04-18T22:21:22.752Z,13.00
2023-04-18T22:23:49.548Z,13.00
2023-04-18T22:26:16.331Z,13.00
2023-04-18T22:28:43.285Z,12.90
2023-04-18T22:31:10.253Z,12.90
2023-04-18T22:33:37.266Z,12.90
2023-04-18T22:36:04.336Z,12.90
2023-04-18T22:38:31.118Z,12.80
2023-04-18T22:40:59.775Z,12.80
2023-04-18T22:43:26.913Z,12.80
2023-04-18T22:45:53.843Z,12.80
2023-04-18T22:48:20.623Z,12.80
2023-04-18T22:50:47.624Z,12.70
2023-04-18T22:53:15.054Z,12.70
2023-04-18T22:55:43.653Z,12.70
2023-04-18T22:58:11.330Z,12.70
2023-04-18T23:00:38.215Z,12.70
2023-04-18T23:03:05.406Z,12.60
2023-04-18T23:05:33.317Z,12.60
2023-04-18T23:08:00.715Z,12.60
2023-04-18T23:10:27.771Z,12.50
2023-04-18T23:12:54.715Z,12.50
2023-04-18T23:15:22.923Z,12.50
2023-04-18T23:17:53.138Z,12.60
2023-04-18T23:20:21.014Z,12.60
2023-04-18T23:22:51.575Z,12.60
2023-04-18T23:25:19.911Z,12.60
2023-04-18T23:27:47.188Z,12.50
2023-04-18T23:30:14.314Z,12.50
2023-04-18T23:32:41.143Z,12.50
2023-04-18T23:35:08.343Z,12.50
2023-04-18T23:37:35.233Z,12.50
2023-04-18T23:40:02.721Z,12.50
2023-04-18T23:42:29.584Z,12.50
2023-04-18T23:44:57.740Z,12.50
2023-04-18T23:47:24.535Z,12.50
2023-04-18T23:49:51.384Z,12.50
2023-04-18T23:52:18.475Z,12.60
2023-04-18T23:54:45.338Z,12.60
2023-04-18T23:57:12.215Z,12.70
2023-04-18T23:59:39.030Z,12.70
